createdAt,value
2018-07-06T00:00:29.267Z,65.75
2018-07-06T00:01:09.865Z,65.66
2018-07-06T00:01:54.014Z,66.14
2018-07-06T00:02:34.526Z,65.66
2018-07-06T00:03:14.841Z,65.66
2018-07-06T00:03:55.334Z,66.14
2018-07-06T00:04:35.710Z,65.85
2018-07-06T00:05:16.215Z,65.95
2018-07-06T00:05:56.904Z,65.75
2018-07-06T00:06:39.842Z,65.85
2018-07-06T00:07:22.081Z,65.85
2018-07-06T00:08:02.534Z,65.85
2018-07-06T00:08:42.937Z,66.24
2018-07-06T00:09:23.427Z,65.95
2018-07-06T00:10:07.331Z,65.85
2018-07-06T00:10:48.283Z,66.24
2018-07-06T00:11:31.556Z,66.24
2018-07-06T00:12:13.817Z,66.33
2018-07-06T00:12:54.210Z,66.2
2018-07-06T00:13:36.551Z,66.01
2018-07-06T00:14:16.652Z,66.62
2018-07-06T00:14:57.115Z,66.11
2018-07-06T00:15:37.548Z,66.43
2018-07-06T00:16:22.709Z,66.14
2018-07-06T00:17:05.527Z,66.04
2018-07-06T00:17:45.899Z,65.85
2018-07-06T00:18:26.360Z,65.75
2018-07-06T00:19:12.923Z,65.85
2018-07-06T00:19:54.196Z,65.81
2018-07-06T00:20:36.266Z,65.85
2018-07-06T00:21:17.107Z,65.75
2018-07-06T00:21:57.933Z,65.66
2018-07-06T00:22:38.419Z,65.85
2018-07-06T00:23:19.136Z,65.81
2018-07-06T00:24:00.346Z,66.2
2018-07-06T00:24:40.783Z,66.49
2018-07-06T00:25:21.376Z,66.01
2018-07-06T00:26:02.733Z,66.39
2018-07-06T00:26:42.546Z,66.49
2018-07-06T00:27:27.143Z,66.49
2018-07-06T00:28:09.016Z,66.39
2018-07-06T00:28:50.652Z,66.59
2018-07-06T00:29:31.822Z,66.88
2018-07-06T00:30:11.593Z,66.88
2018-07-06T00:30:54.310Z,66.88
2018-07-06T00:31:42.108Z,66.88
2018-07-06T00:32:25.234Z,66.88
2018-07-06T00:33:05.935Z,67.16
2018-07-06T00:33:46.368Z,67.36
2018-07-06T00:34:26.712Z,67.65
2018-07-06T00:35:09.823Z,67.36
2018-07-06T00:35:50.225Z,67.46
2018-07-06T00:36:30.612Z,67.55
2018-07-06T00:37:10.980Z,67.16
2018-07-06T00:37:54.245Z,67.16
2018-07-06T00:38:36.595Z,67.55
2018-07-06T00:39:16.878Z,67.36
2018-07-06T00:39:57.337Z,68.04
2018-07-06T00:40:37.777Z,67.74
2018-07-06T00:41:18.278Z,67.84
2018-07-06T00:42:00.325Z,68.23
2018-07-06T00:42:40.345Z,68.13
2018-07-06T00:43:20.753Z,68.38
2018-07-06T00:44:02.925Z,68.13
2018-07-06T00:44:43.423Z,68.61
2018-07-06T00:45:23.892Z,68.71
2018-07-06T00:46:04.790Z,68.52
2018-07-06T00:46:45.078Z,68.8
2018-07-06T00:47:26.719Z,68.9
2018-07-06T00:48:08.964Z,68.61
2018-07-06T00:48:49.737Z,68.71
2018-07-06T00:49:29.939Z,68.48
2018-07-06T00:50:10.375Z,68.61
2018-07-06T00:50:50.864Z,68.68
2018-07-06T00:51:31.226Z,68.96
2018-07-06T00:52:11.559Z,68.96
2018-07-06T00:52:55.156Z,69.15
2018-07-06T00:53:35.608Z,68.96
2018-07-06T00:54:17.775Z,69.35
2018-07-06T00:54:59.160Z,69.25
2018-07-06T00:55:41.758Z,69.45
2018-07-06T00:56:21.941Z,69.15
2018-07-06T00:57:02.521Z,69.35
2018-07-06T00:57:43.729Z,69.35
2018-07-06T00:58:25.811Z,69.25
2018-07-06T00:59:07.129Z,69.25
2018-07-06T00:59:47.626Z,69.35
2018-07-06T01:00:28.037Z,68.96
2018-07-06T01:01:10.749Z,69.64
2018-07-06T01:01:51.368Z,69.45
2018-07-06T01:02:31.583Z,69.45
2018-07-06T01:03:12.015Z,69.54
2018-07-06T01:03:56.296Z,70.02
2018-07-06T01:04:36.107Z,70.09
2018-07-06T01:05:16.629Z,70.12
2018-07-06T01:05:56.939Z,70.09
2018-07-06T01:06:40.629Z,70.18
2018-07-06T01:07:20.985Z,70.28
2018-07-06T01:08:01.400Z,70.18
2018-07-06T01:08:41.789Z,70.18
2018-07-06T01:09:23.857Z,69.89
2018-07-06T01:10:04.454Z,70.56
2018-07-06T01:10:44.731Z,70.47
2018-07-06T01:11:25.883Z,70.47
2018-07-06T01:12:06.577Z,70.37
2018-07-06T01:12:47.110Z,70.28
2018-07-06T01:13:27.688Z,70.47
2018-07-06T01:14:08.106Z,70.56
2018-07-06T01:15:56.487Z,70.56
2018-07-06T01:16:41.411Z,70.56
2018-07-06T01:17:22.168Z,70.28
2018-07-06T01:18:02.642Z,70.37
2018-07-06T01:18:43.008Z,70.76
2018-07-06T01:19:23.414Z,70.66
2018-07-06T01:20:06.761Z,70.76
2018-07-06T01:20:47.439Z,70.37
2018-07-06T01:21:27.707Z,70.56
2018-07-06T01:22:08.146Z,70.37
2018-07-06T01:22:48.574Z,70.95
2018-07-06T01:23:28.934Z,70.86
2018-07-06T01:24:09.706Z,71.04
2018-07-06T01:24:50.108Z,71.04
2018-07-06T01:25:30.536Z,70.66
2018-07-06T01:26:10.949Z,70.76
2018-07-06T01:26:51.336Z,71.04
2018-07-06T01:27:31.865Z,70.95
2018-07-06T01:28:12.784Z,70.86
2018-07-06T01:28:53.024Z,71.24
2018-07-06T01:29:33.501Z,71.04
2018-07-06T01:30:13.901Z,70.86
2018-07-06T01:30:54.418Z,70.95
2018-07-06T01:31:34.904Z,70.76
2018-07-06T01:32:15.271Z,71.24
2018-07-06T01:32:55.688Z,71.43
2018-07-06T01:33:36.155Z,71.62
2018-07-06T01:34:16.550Z,71.24
2018-07-06T01:34:57.003Z,71.43
2018-07-06T01:35:37.407Z,71.53
2018-07-06T01:36:17.784Z,71.2
2018-07-06T01:36:58.160Z,71.62
2018-07-06T01:37:38.566Z,71.72
2018-07-06T01:38:19.135Z,71.43
2018-07-06T01:38:59.453Z,71.69
2018-07-06T01:39:39.987Z,71.59
2018-07-06T01:40:20.838Z,71.91
2018-07-06T01:41:01.255Z,71.62
2018-07-06T01:41:41.747Z,71.49
2018-07-06T01:42:22.171Z,72.26
2018-07-06T01:43:02.480Z,72.07
2018-07-06T01:43:42.955Z,72.07
2018-07-06T01:44:23.491Z,72.36
2018-07-06T01:45:03.737Z,72.45
2018-07-06T01:45:44.152Z,71.97
2018-07-06T01:46:24.911Z,72.17
2018-07-06T01:47:05.102Z,72.55
2018-07-06T01:47:46.067Z,72.55
2018-07-06T01:48:26.546Z,72.26
2018-07-06T01:49:07.068Z,72.74
2018-07-06T01:49:47.719Z,72.65
2018-07-06T01:50:28.452Z,72.84
2018-07-06T01:51:08.752Z,72.94
2018-07-06T01:51:49.163Z,72.65
2018-07-06T01:52:29.840Z,72.84
2018-07-06T01:53:10.511Z,72.55
2018-07-06T01:53:50.971Z,72.65
2018-07-06T01:54:31.601Z,72.84
2018-07-06T01:55:11.838Z,72.65
2018-07-06T01:55:52.632Z,72.84
2018-07-06T01:56:33.017Z,72.74
2018-07-06T01:57:13.696Z,72.65
2018-07-06T01:57:54.122Z,72.74
2018-07-06T01:58:34.801Z,72.74
2018-07-06T01:59:15.133Z,72.74
2018-07-06T01:59:55.684Z,72.84
2018-07-06T02:00:36.886Z,72.74
2018-07-06T02:01:17.561Z,73.13
2018-07-06T02:01:58.010Z,72.84
2018-07-06T02:04:19.566Z,73.03
2018-07-06T02:06:23.138Z,73.51
2018-07-06T02:07:03.694Z,73.32
2018-07-06T02:07:44.207Z,73.22
2018-07-06T02:08:24.661Z,73.42
2018-07-06T02:09:05.040Z,73.71
2018-07-06T02:09:45.462Z,73.28
2018-07-06T02:10:25.869Z,73.61
2018-07-06T02:11:06.262Z,73.8
2018-07-06T02:11:46.720Z,73.19
2018-07-06T02:12:27.259Z,73.71
2018-07-06T02:13:07.535Z,73.67
2018-07-06T02:13:47.976Z,73.19
2018-07-06T02:14:28.406Z,73.77
2018-07-06T02:15:08.788Z,73.38
2018-07-06T02:15:49.199Z,74.05
2018-07-06T02:16:29.568Z,73.47
2018-07-06T02:17:10.014Z,73.38
2018-07-06T02:17:50.782Z,73.96
2018-07-06T02:18:31.072Z,73.86
2018-07-06T02:19:11.475Z,73.8
2018-07-06T02:19:51.895Z,73.42
2018-07-06T02:20:32.341Z,73.67
2018-07-06T02:21:12.875Z,73.57
2018-07-06T02:21:53.187Z,73.47
2018-07-06T02:22:33.681Z,73.19
2018-07-06T02:23:14.113Z,73.96
2018-07-06T02:23:57.264Z,73.77
2018-07-06T02:24:37.774Z,73.67
2018-07-06T02:25:18.233Z,73.77
2018-07-06T02:25:58.669Z,73.96
2018-07-06T02:26:39.050Z,73.77
2018-07-06T02:27:19.440Z,73.96
2018-07-06T02:27:59.883Z,73.86
2018-07-06T02:28:40.257Z,73.77
2018-07-06T02:29:20.691Z,73.47
2018-07-06T02:30:01.019Z,73.67
2018-07-06T02:30:41.485Z,73.57
2018-07-06T02:31:21.816Z,73.67
2018-07-06T02:32:02.297Z,73.67
2018-07-06T02:32:42.703Z,73.38
2018-07-06T02:33:23.115Z,74.15
2018-07-06T02:34:03.476Z,74.25
2018-07-06T02:34:43.877Z,74.25
2018-07-06T02:35:24.380Z,73.96
2018-07-06T02:36:04.729Z,74.15
2018-07-06T02:36:45.266Z,73.96
2018-07-06T02:37:25.704Z,74.34
2018-07-06T02:38:05.975Z,74.15
2018-07-06T02:38:46.533Z,74.25
2018-07-06T02:39:27.093Z,74.15
2018-07-06T02:40:07.391Z,74.15
2018-07-06T02:40:47.821Z,74.25
2018-07-06T02:41:28.229Z,74.15
2018-07-06T02:42:08.644Z,74.44
2018-07-06T02:42:49.001Z,74.05
2018-07-06T02:43:29.474Z,74.25
2018-07-06T02:44:09.862Z,74.25
2018-07-06T02:44:50.269Z,74.34
2018-07-06T02:45:30.777Z,74.15
2018-07-06T02:46:11.129Z,74.15
2018-07-06T02:46:51.613Z,74.25
2018-07-06T02:47:32.045Z,74.05
2018-07-06T02:48:12.391Z,74.25
2018-07-06T02:48:52.999Z,74.05
2018-07-06T02:49:33.191Z,74.54
2018-07-06T02:50:13.626Z,74.34
2018-07-06T02:50:54.003Z,74.54
2018-07-06T02:51:34.387Z,74.54
2018-07-06T02:52:14.853Z,74.05
2018-07-06T02:52:55.191Z,74.63
2018-07-06T02:53:35.641Z,74.44
2018-07-06T02:54:16.096Z,74.44
2018-07-06T02:54:56.532Z,74.82
2018-07-06T02:55:37.004Z,74.54
2018-07-06T02:56:17.383Z,75.11
2018-07-06T02:56:58.047Z,75.11
2018-07-06T02:57:38.361Z,74.92
2018-07-06T02:58:18.749Z,74.92
2018-07-06T02:58:59.213Z,75.11
2018-07-06T02:59:39.824Z,74.73
2018-07-06T03:00:20.392Z,74.82
2018-07-06T03:01:00.856Z,75.27
2018-07-06T03:01:41.231Z,75.11
2018-07-06T03:02:21.896Z,75.02
2018-07-06T03:03:02.256Z,75.02
2018-07-06T03:03:42.666Z,75.27
2018-07-06T03:04:23.177Z,75.46
2018-07-06T03:05:03.552Z,75.46
2018-07-06T03:05:43.986Z,75.27
2018-07-06T03:06:24.373Z,75.46
2018-07-06T03:07:04.773Z,75.46
2018-07-06T03:07:45.181Z,75.27
2018-07-06T03:08:25.581Z,75.46
2018-07-06T03:09:05.982Z,75.37
2018-07-06T03:09:46.441Z,75.65
2018-07-06T03:10:26.898Z,75.84
2018-07-06T03:11:07.420Z,75.56
2018-07-06T03:11:47.766Z,75.37
2018-07-06T03:12:28.076Z,75.46
2018-07-06T03:13:08.584Z,75.46
2018-07-06T03:13:49.029Z,75.46
2018-07-06T03:14:29.381Z,75.37
2018-07-06T03:15:09.777Z,75.56
2018-07-06T03:15:50.476Z,75.56
2018-07-06T03:16:31.206Z,75.56
2018-07-06T03:17:11.768Z,75.75
2018-07-06T03:17:52.098Z,75.37
2018-07-06T03:18:32.695Z,75.56
2018-07-06T03:19:12.920Z,75.75
2018-07-06T03:19:53.674Z,75.75
2018-07-06T03:20:35.039Z,75.84
2018-07-06T03:21:14.804Z,75.17
2018-07-06T03:21:56.165Z,75.49
2018-07-06T03:22:36.519Z,75.56
2018-07-06T03:23:17.331Z,75.46
2018-07-06T03:23:57.632Z,75.65
2018-07-06T03:24:38.058Z,75.46
2018-07-06T03:25:18.981Z,75.75
2018-07-06T03:26:02.355Z,75.84
2018-07-06T03:26:42.829Z,75.37
2018-07-06T03:27:23.174Z,75.37
2018-07-06T03:28:04.560Z,75.37
2018-07-06T03:28:45.311Z,75.56
2018-07-06T03:29:25.199Z,75.27
2018-07-06T03:30:05.680Z,75.65
2018-07-06T03:30:46.155Z,75.65
2018-07-06T03:31:26.439Z,75.37
2018-07-06T03:32:07.151Z,75.65
2018-07-06T03:32:47.818Z,75.69
2018-07-06T03:33:28.168Z,75.75
2018-07-06T03:34:08.572Z,75.65
2018-07-06T03:34:49.145Z,75.75
2018-07-06T03:35:29.440Z,75.65
2018-07-06T03:36:09.885Z,75.75
2018-07-06T03:36:50.331Z,75.84
2018-07-06T03:37:30.746Z,75.94
2018-07-06T03:38:11.706Z,75.65
2018-07-06T03:38:51.783Z,75.75
2018-07-06T03:39:32.212Z,75.75
2018-07-06T03:40:12.572Z,75.75
2018-07-06T03:40:52.990Z,75.94
2018-07-06T03:41:33.394Z,75.84
2018-07-06T03:42:13.797Z,75.56
2018-07-06T03:42:54.239Z,75.65
2018-07-06T03:43:35.038Z,75.75
2018-07-06T03:44:15.400Z,75.75
2018-07-06T03:44:55.799Z,75.75
2018-07-06T03:45:36.410Z,75.59
2018-07-06T03:46:16.823Z,75.88
2018-07-06T03:46:57.669Z,75.75
2018-07-06T03:47:37.870Z,76.04
2018-07-06T03:48:18.711Z,75.75
2018-07-06T03:48:59.227Z,75.94
2018-07-06T03:49:39.545Z,75.56
2018-07-06T03:50:21.049Z,75.56
2018-07-06T03:51:01.436Z,75.65
2018-07-06T03:51:41.882Z,76.14
2018-07-06T03:52:22.308Z,75.65
2018-07-06T03:53:02.870Z,76.07
2018-07-06T03:53:43.233Z,75.75
2018-07-06T03:54:23.621Z,75.69
2018-07-06T03:55:04.105Z,76.04
2018-07-06T03:55:44.582Z,76.32
2018-07-06T03:56:24.878Z,76.14
2018-07-06T03:57:05.314Z,76.14
2018-07-06T03:57:45.733Z,75.84
2018-07-06T03:58:26.416Z,75.88
2018-07-06T03:59:07.303Z,75.94
2018-07-06T03:59:47.413Z,75.94
2018-07-06T04:00:28.074Z,75.94
2018-07-06T04:01:08.813Z,75.65
2018-07-06T04:01:49.508Z,75.75
2018-07-06T04:02:30.257Z,76.32
2018-07-06T04:03:11.536Z,75.94
2018-07-06T04:03:51.907Z,76.23
2018-07-06T04:04:32.468Z,76.23
2018-07-06T04:42:48.184Z,66.43
2018-07-06T04:44:36.076Z,65.3
2018-07-06T04:46:48.937Z,64.28
2018-07-06T04:47:29.302Z,64.08
2018-07-06T04:48:09.751Z,63.73
2018-07-06T04:51:32.421Z,61.92
2018-07-06T04:52:12.722Z,62.21
2018-07-06T04:52:53.110Z,61.63
2018-07-06T04:53:33.485Z,60.86
2018-07-06T04:54:13.867Z,60.96
2018-07-06T04:58:02.371Z,58.8
2018-07-06T04:58:41.937Z,58.31
2018-07-06T04:59:22.471Z,57.56
2018-07-06T05:00:03.033Z,57.18
2018-07-06T05:00:43.775Z,56.98
2018-07-06T05:01:24.104Z,56.88
2018-07-06T05:02:04.724Z,56.52
2018-07-06T05:02:45.290Z,55.85
2018-07-06T05:03:26.396Z,55.46
2018-07-06T05:04:07.058Z,55.88
2018-07-06T05:04:47.822Z,55.3
2018-07-06T05:05:28.199Z,55.49
2018-07-06T05:06:08.611Z,54.43
2018-07-06T05:06:49.971Z,54.52
2018-07-06T05:07:30.866Z,54.16
2018-07-06T05:08:11.317Z,53.77
2018-07-06T05:08:52.265Z,53.39
2018-07-06T05:09:43.553Z,52.93
2018-07-06T05:10:24.706Z,52.73
2018-07-06T05:11:05.207Z,52.44
2018-07-06T05:11:47.772Z,51.86
2018-07-06T05:12:28.206Z,51.89
2018-07-06T05:14:16.481Z,50.94
2018-07-06T05:14:56.872Z,50.56
2018-07-06T05:15:37.343Z,50.26
2018-07-06T05:16:17.749Z,50.16
2018-07-06T05:16:58.263Z,50.07
2018-07-06T05:17:38.580Z,49.49
2018-07-06T05:18:19.031Z,49.97
2018-07-06T05:18:59.455Z,49.87
2018-07-06T05:19:39.934Z,49.58
2018-07-06T05:20:20.297Z,49.97
2018-07-06T05:21:00.960Z,49.77
2018-07-06T05:21:41.324Z,49.12
2018-07-06T05:22:21.785Z,49.41
2018-07-06T05:23:02.173Z,49.58
2018-07-06T05:23:42.627Z,49.77
2018-07-06T05:24:23.051Z,50.46
2018-07-06T05:25:03.464Z,50.34
2018-07-06T05:25:43.929Z,50.82
2018-07-06T05:26:24.442Z,50.92
2018-07-06T05:27:04.961Z,51.21
2018-07-06T05:27:45.368Z,51.4
2018-07-06T05:28:25.803Z,50.92
2018-07-06T05:29:06.215Z,50.92
2018-07-06T05:29:46.702Z,50.34
2018-07-06T05:30:27.051Z,50.34
2018-07-06T05:37:21.011Z,49.29
2018-07-06T05:38:02.127Z,49.32
2018-07-06T05:38:42.689Z,48.73
2018-07-06T05:39:23.274Z,49.02
2018-07-06T05:40:03.655Z,48.37
2018-07-06T05:40:44.082Z,48.27
2018-07-06T05:41:24.893Z,48.37
2018-07-06T05:42:05.465Z,48.93
2018-07-06T05:45:07.101Z,49.87
2018-07-06T05:47:34.562Z,50.43
2018-07-06T05:48:15.331Z,50.07
2018-07-06T05:48:56.028Z,50.24
2018-07-06T05:49:36.777Z,50.53
2018-07-06T05:50:17.279Z,50.92
2018-07-06T05:50:58.001Z,51.67
2018-07-06T05:51:38.384Z,51.67
2018-07-06T05:52:18.927Z,52.42
2018-07-06T05:52:59.321Z,53.36
2018-07-06T05:53:39.660Z,53.55
2018-07-06T05:54:20.692Z,54.49
2018-07-06T05:55:02.259Z,54.98
2018-07-06T05:55:42.668Z,55.07
2018-07-06T05:56:23.102Z,55.34
2018-07-06T05:57:03.666Z,56.11
2018-07-06T05:57:44.444Z,55.92
2018-07-06T05:58:24.799Z,56.86
2018-07-06T05:59:05.304Z,57.24
2018-07-06T05:59:45.987Z,57.63
2018-07-06T06:00:27.355Z,58.28
2018-07-06T06:01:07.850Z,58.67
2018-07-06T06:01:48.658Z,59.51
2018-07-06T06:02:28.830Z,59.7
2018-07-06T06:03:09.741Z,60.18
2018-07-06T06:03:50.400Z,60.38
2018-07-06T06:04:30.979Z,60.47
2018-07-06T06:05:11.409Z,61.12
2018-07-06T06:05:52.139Z,61.99
2018-07-06T06:06:32.351Z,61.8
2018-07-06T06:07:12.824Z,62.37
2018-07-06T06:07:53.424Z,62.76
2018-07-06T06:08:33.768Z,63.15
2018-07-06T06:09:14.227Z,63.05
2018-07-06T06:09:54.548Z,63.05
2018-07-06T06:10:35.231Z,63.7
2018-07-06T06:11:15.634Z,63.5
2018-07-06T06:11:56.175Z,63.4
2018-07-06T06:12:37.025Z,63.21
2018-07-06T06:13:17.462Z,63.02
2018-07-06T06:13:57.943Z,63.4
2018-07-06T06:14:38.408Z,63.98
2018-07-06T06:15:19.179Z,63.89
2018-07-06T06:15:59.991Z,64.28
2018-07-06T06:16:40.345Z,63.79
2018-07-06T06:17:21.005Z,64.18
2018-07-06T06:18:01.474Z,64.37
2018-07-06T06:18:41.929Z,64.66
2018-07-06T06:19:22.181Z,64.66
2018-07-06T06:20:02.774Z,64.92
2018-07-06T06:20:43.224Z,64.86
2018-07-06T06:21:23.680Z,64.72
2018-07-06T06:22:04.686Z,65.01
2018-07-06T06:22:45.946Z,64.92
2018-07-06T06:23:26.197Z,64.92
2018-07-06T06:24:08.057Z,64.82
2018-07-06T06:24:48.763Z,65.53
2018-07-06T06:25:29.400Z,65.11
2018-07-06T06:26:10.375Z,65.43
2018-07-06T06:26:53.184Z,65.14
2018-07-06T06:27:33.760Z,65.5
2018-07-06T06:28:15.450Z,65.4
2018-07-06T06:28:56.108Z,65.5
2018-07-06T06:29:37.296Z,65.4
2018-07-06T06:30:18.142Z,65.3
2018-07-06T06:30:58.693Z,65.78
2018-07-06T06:31:39.563Z,65.4
2018-07-06T06:32:20.956Z,65.5
2018-07-06T06:33:01.253Z,65.4
2018-07-06T06:33:41.703Z,65.5
2018-07-06T06:34:22.251Z,65.14
2018-07-06T06:35:03.044Z,65.01
2018-07-06T06:35:43.642Z,64.82
2018-07-06T06:36:24.047Z,65.4
2018-07-06T06:37:04.911Z,65.11
2018-07-06T06:37:45.569Z,65.14
2018-07-06T06:38:25.854Z,64.92
2018-07-06T06:39:07.028Z,65.3
2018-07-06T06:39:47.466Z,65.24
2018-07-06T06:40:28.002Z,65.3
2018-07-06T06:41:08.738Z,65.5
2018-07-06T06:41:49.209Z,65.4
2018-07-06T06:42:30.602Z,65.4
2018-07-06T06:43:11.095Z,65.4
2018-07-06T06:43:51.464Z,65.4
2018-07-06T06:44:32.047Z,65.4
2018-07-06T06:45:12.718Z,65.5
2018-07-06T06:45:53.234Z,65.59
2018-07-06T06:46:33.776Z,65.5
2018-07-06T06:47:14.199Z,65.2
2018-07-06T06:47:54.669Z,65.4
2018-07-06T06:48:35.087Z,65.11
2018-07-06T06:49:15.604Z,65.4
2018-07-06T06:49:55.992Z,65.53
2018-07-06T06:50:37.376Z,64.95
2018-07-06T06:51:17.551Z,65.01
2018-07-06T06:51:57.880Z,65.01
2018-07-06T06:52:39.116Z,65.2
2018-07-06T06:53:19.582Z,65.4
2018-07-06T06:54:00.313Z,64.92
2018-07-06T06:54:40.851Z,65.59
2018-07-06T06:55:21.454Z,65.3
2018-07-06T06:56:01.854Z,65.4
2018-07-06T06:56:43.144Z,65.5
2018-07-06T06:57:23.322Z,65.53
2018-07-06T06:58:03.880Z,65.59
2018-07-06T06:58:44.195Z,65.43
2018-07-06T06:59:24.759Z,64.86
2018-07-06T07:00:05.144Z,64.86
2018-07-06T07:00:47.088Z,64.37
2018-07-06T07:01:27.363Z,64.47
2018-07-06T07:02:08.160Z,64.56
2018-07-06T07:02:48.387Z,64.47
2018-07-06T07:03:28.818Z,65.2
2018-07-06T07:04:09.650Z,64.82
2018-07-06T07:04:50.145Z,65.01
2018-07-06T07:05:30.758Z,65.2
2018-07-06T07:06:11.226Z,65.5
2018-07-06T07:06:51.686Z,65.5
2018-07-06T07:07:32.267Z,65.5
2018-07-06T07:08:13.045Z,65.69
2018-07-06T07:08:53.683Z,65.4
2018-07-06T07:09:34.052Z,65.4
2018-07-06T07:10:14.536Z,65.5
2018-07-06T07:10:54.968Z,65.59
2018-07-06T07:11:35.778Z,65.59
2018-07-06T07:12:16.133Z,65.59
2018-07-06T07:12:56.467Z,65.78
2018-07-06T07:13:36.995Z,65.78
2018-07-06T07:14:17.439Z,65.4
2018-07-06T07:14:57.794Z,65.3
2018-07-06T07:15:38.284Z,65.4
2018-07-06T07:16:18.750Z,65.3
2018-07-06T07:16:59.325Z,65.2
2018-07-06T07:17:39.990Z,65.2
2018-07-06T07:18:20.364Z,64.86
2018-07-06T07:19:00.801Z,65.05
2018-07-06T07:19:41.301Z,65.05
2018-07-06T07:20:21.835Z,64.95
2018-07-06T07:21:02.409Z,64.72
2018-07-06T07:21:42.891Z,64.56
2018-07-06T07:22:23.344Z,64.66
2018-07-06T07:23:04.316Z,64.76
2018-07-06T07:23:44.464Z,64.37
2018-07-06T07:24:25.449Z,64.37
2018-07-06T07:25:05.979Z,64.56
2018-07-06T07:25:46.706Z,64.08
2018-07-06T07:26:27.141Z,63.89
2018-07-06T07:27:07.546Z,63.98
2018-07-06T07:27:47.861Z,64.08
2018-07-06T07:28:28.331Z,63.79
2018-07-06T07:29:08.873Z,63.12
2018-07-06T07:29:49.946Z,63.5
2018-07-06T07:30:30.367Z,63.12
2018-07-06T07:31:15.620Z,63.12
2018-07-06T07:31:55.810Z,62.95
2018-07-06T07:32:37.259Z,62.86
2018-07-06T07:33:18.196Z,62.18
2018-07-06T07:33:58.605Z,62.44
2018-07-06T07:34:38.925Z,62.34
2018-07-06T07:35:19.596Z,62.54
2018-07-06T07:36:00.171Z,62.05
2018-07-06T07:36:40.658Z,61.77
2018-07-06T07:37:21.139Z,61.77
2018-07-06T07:38:03.408Z,61.86
2018-07-06T07:38:43.026Z,62.08
2018-07-06T07:39:23.587Z,61.96
2018-07-06T07:40:04.133Z,62.18
2018-07-06T07:40:44.753Z,61.6
2018-07-06T07:41:25.218Z,61.31
2018-07-06T07:42:06.020Z,60.93
2018-07-06T07:42:48.994Z,60.93
2018-07-06T07:43:29.741Z,60.73
2018-07-06T07:44:13.427Z,60.35
2018-07-06T07:44:53.383Z,60.54
2018-07-06T07:45:34.500Z,60.73
2018-07-06T07:46:15.797Z,60.38
2018-07-06T07:46:56.742Z,60.57
2018-07-06T07:47:37.452Z,60.25
2018-07-06T07:48:18.607Z,60.06
2018-07-06T07:48:59.380Z,60.57
2018-07-06T07:49:40.214Z,59.89
2018-07-06T07:50:20.840Z,60.54
2018-07-06T07:51:02.413Z,60.57
2018-07-06T07:51:42.160Z,60.38
2018-07-06T07:52:23.746Z,60.09
2018-07-06T07:53:03.788Z,59.6
2018-07-06T07:53:45.521Z,59.38
2018-07-06T07:54:25.515Z,59.77
2018-07-06T07:55:06.877Z,59.89
2018-07-06T07:55:47.271Z,59.77
2018-07-06T07:56:29.203Z,59.22
2018-07-06T07:57:10.989Z,59.38
2018-07-06T07:57:51.026Z,59.67
2018-07-06T07:58:32.428Z,59.86
2018-07-06T07:59:13.417Z,59.8
2018-07-06T07:59:54.913Z,59.99
2018-07-06T08:00:36.032Z,59.22
2018-07-06T08:01:16.275Z,59.86
2018-07-06T08:01:57.406Z,59.8
2018-07-06T08:02:39.518Z,59.89
2018-07-06T08:03:21.365Z,59.51
2018-07-06T08:04:03.073Z,59.89
2018-07-06T08:04:44.128Z,59.22
2018-07-06T08:05:25.129Z,59.12
2018-07-06T08:06:05.518Z,59.31
2018-07-06T08:06:46.505Z,58.83
2018-07-06T08:07:27.265Z,58.73
2018-07-06T08:08:07.710Z,59.09
2018-07-06T08:08:49.338Z,59.38
2018-07-06T08:09:30.991Z,59.48
2018-07-06T08:10:10.873Z,59.67
2018-07-06T08:10:52.105Z,59.58
2018-07-06T08:11:35.446Z,59.58
2018-07-06T08:12:13.359Z,59.86
2018-07-06T08:12:54.933Z,59.48
2018-07-06T08:13:35.406Z,59.6
2018-07-06T08:14:15.988Z,59.89
2018-07-06T08:14:57.699Z,59.7
2018-07-06T08:15:37.344Z,59.51
2018-07-06T08:16:18.442Z,59.31
2018-07-06T08:16:58.906Z,59.12
2018-07-06T08:17:40.439Z,58.93
2018-07-06T08:18:20.589Z,59.31
2018-07-06T08:19:01.303Z,58.45
2018-07-06T08:19:41.889Z,58.86
2018-07-06T08:20:23.438Z,58.18
2018-07-06T08:21:03.660Z,58.18
2018-07-06T08:21:44.778Z,58.28
2018-07-06T08:22:25.361Z,58.28
2018-07-06T08:23:06.928Z,58.28
2018-07-06T08:23:50.962Z,58.47
2018-07-06T08:24:31.044Z,58.37
2018-07-06T08:25:12.224Z,58.28
2018-07-06T08:25:52.809Z,58.18
2018-07-06T08:26:34.079Z,58.28
2018-07-06T08:27:14.346Z,58.86
2018-07-06T08:27:54.749Z,58.86
2018-07-06T08:28:36.441Z,58.18
2018-07-06T08:29:17.436Z,58.09
2018-07-06T08:29:57.708Z,58.18
2018-07-06T08:30:38.987Z,58.18
2018-07-06T08:31:19.617Z,58.09
2018-07-06T08:32:00.123Z,58.28
2018-07-06T08:32:40.959Z,57.99
2018-07-06T08:33:21.553Z,57.41
2018-07-06T08:34:03.735Z,57.44
2018-07-06T08:34:47.450Z,57.54
2018-07-06T08:35:27.469Z,57.54
2018-07-06T08:36:08.443Z,57.63
2018-07-06T08:36:49.571Z,57.44
2018-07-06T08:37:30.212Z,57.05
2018-07-06T08:38:11.437Z,57.05
2018-07-06T08:38:52.232Z,57.44
2018-07-06T08:39:34.011Z,57.05
2018-07-06T08:40:15.942Z,56.88
2018-07-06T08:40:56.847Z,56.67
2018-07-06T08:41:37.372Z,56.76
2018-07-06T08:42:18.699Z,56.6
2018-07-06T08:44:40.980Z,56.11
2018-07-06T08:45:24.057Z,56.02
2018-07-06T08:46:04.506Z,56.3
2018-07-06T08:46:45.302Z,55.82
2018-07-06T08:47:26.075Z,55.43
2018-07-06T08:48:06.943Z,55.24
2018-07-06T08:48:47.807Z,55.17
2018-07-06T08:49:34.631Z,54.85
2018-07-06T08:50:27.181Z,55.07
2018-07-06T08:51:07.388Z,54.59
2018-07-06T08:51:47.940Z,55.17
2018-07-06T08:52:28.825Z,54.49
2018-07-06T08:53:09.152Z,55.56
2018-07-06T08:53:50.158Z,55.07
2018-07-06T08:54:31.724Z,54.49
2018-07-06T08:55:11.644Z,54.49
2018-07-06T08:55:52.238Z,54.59
2018-07-06T08:56:32.815Z,54.39
2018-07-06T08:57:13.295Z,54.39
2018-07-06T08:57:54.426Z,54.01
2018-07-06T08:58:35.346Z,53.91
2018-07-06T08:59:15.874Z,53.94
2018-07-06T08:59:57.157Z,53.36
2018-07-06T09:00:37.748Z,53.65
2018-07-06T09:01:17.494Z,53.36
2018-07-06T09:01:58.213Z,52.51
2018-07-06T09:02:39.126Z,52.49
2018-07-06T09:03:19.249Z,52.51
2018-07-06T09:03:59.699Z,51.64
2018-07-06T09:04:40.390Z,51.74
2018-07-06T09:05:20.818Z,51.93
2018-07-06T09:06:01.488Z,52.51
2018-07-06T09:06:42.243Z,52.32
2018-07-06T09:08:38.123Z,52.32
2018-07-06T09:09:16.674Z,52.12
2018-07-06T09:09:56.263Z,52.42
2018-07-06T09:10:37.179Z,51.74
2018-07-06T09:11:17.765Z,51.84
2018-07-06T09:11:58.385Z,52.12
2018-07-06T09:12:40.182Z,51.45
2018-07-06T09:13:21.821Z,52.22
2018-07-06T09:14:02.265Z,52.12
2018-07-06T09:14:42.754Z,51.74
2018-07-06T09:15:24.595Z,51.84
2018-07-06T09:16:05.449Z,52.12
2018-07-06T09:16:48.862Z,51.16
2018-07-06T09:17:28.750Z,51.28
2018-07-06T09:18:09.336Z,50.89
2018-07-06T09:18:49.911Z,50.89
2018-07-06T09:19:30.413Z,50.99
2018-07-06T09:20:11.093Z,50.41
2018-07-06T09:20:51.335Z,50.41
2018-07-06T09:21:31.966Z,50.24
2018-07-06T09:22:15.249Z,50.34
2018-07-06T09:22:56.296Z,49.85
2018-07-06T09:23:36.930Z,49.46
2018-07-06T09:24:17.417Z,49.27
2018-07-06T09:24:58.884Z,49.56
2018-07-06T09:25:40.419Z,49.27
2018-07-06T09:26:21.024Z,49.27
2018-07-06T09:27:01.512Z,48.71
2018-07-06T09:27:42.234Z,48.8
2018-07-06T09:28:23.079Z,48.9
2018-07-06T09:29:03.511Z,48.9
2018-07-06T09:29:44.098Z,48.03
2018-07-06T09:30:24.947Z,47.74
2018-07-06T09:31:05.591Z,47.83
2018-07-06T09:31:46.186Z,47.96
2018-07-06T09:32:28.155Z,47.55
2018-07-06T09:33:09.730Z,47.18
2018-07-06T09:33:51.020Z,47.08
2018-07-06T09:34:33.616Z,46.69
2018-07-06T09:35:14.639Z,46.69
2018-07-06T09:35:55.357Z,46.91
2018-07-06T09:36:37.087Z,45.94
2018-07-06T09:37:17.466Z,46.33
2018-07-06T09:37:57.964Z,46.23
2018-07-06T09:38:38.359Z,45.94
2018-07-06T09:39:18.939Z,45.65
2018-07-06T09:39:59.611Z,45.67
2018-07-06T09:40:41.343Z,45.55
2018-07-06T09:41:22.303Z,44.97
2018-07-06T09:42:03.979Z,44.89
2018-07-06T09:42:44.033Z,44.79
2018-07-06T09:43:24.536Z,44.7
2018-07-06T09:44:06.530Z,44.53
2018-07-06T09:44:48.530Z,44.72
2018-07-06T09:45:28.986Z,44.53
2018-07-06T09:46:11.303Z,44.35
2018-07-06T09:46:51.565Z,43.87
2018-07-06T09:47:32.104Z,43.5
2018-07-06T09:48:12.938Z,43.4
2018-07-06T09:48:53.516Z,43.23
2018-07-06T09:49:34.228Z,42.82
2018-07-06T09:50:14.986Z,42.45
2018-07-06T09:50:55.828Z,42.06
2018-07-06T09:51:36.842Z,41.77
2018-07-06T09:52:17.155Z,41.86